Time;durP1;ratioP1;P1;durP2;ratioP2;P2;SDS_P1;SDS_P2;PMS_P1;PMS_P2;Temp;Humidity;BMP_temperature;BMP_pressure;BME280_temperature;BME280_humidity;BME280_pressure;Samples;Min_cycle;Max_cycle;Signal;HPM_P1;HPM_P2
2023/04/23 00:01:16;;;;;;;24.17;10.75;;;11.00;56.60;;;;;;4966988;28;20027;-80
2023/04/23 00:03:43;;;;;;;23.75;11.95;;;10.90;56.60;;;;;;4961927;28;20082;-80
2023/04/23 00:06:10;;;;;;;20.95;11.05;;;10.90;56.70;;;;;;4975512;28;20035;-79
2023/04/23 00:08:40;;;;;;;21.92;11.68;;;10.90;56.80;;;;;;4959548;28;20038;-79
2023/04/23 00:11:06;;;;;;;24.42;12.35;;;10.80;57.10;;;;;;4974670;28;20027;-79
2023/04/23 00:13:32;;;;;;;28.38;11.65;;;10.80;57.00;;;;;;4974584;28;20023;-79
2023/04/23 00:15:59;;;;;;;20.25;10.77;;;10.80;57.00;;;;;;4974543;28;20079;-81
2023/04/23 00:18:25;;;;;;;32.00;13.15;;;10.80;57.00;;;;;;4974848;28;20114;-79
2023/04/23 00:20:50;;;;;;;29.27;11.88;;;10.80;57.00;;;;;;4974868;28;20567;-79
2023/04/23 00:23:16;;;;;;;25.73;12.20;;;10.80;57.20;;;;;;4974683;28;20483;-78
2023/04/23 00:25:42;;;;;;;21.85;10.43;;;10.70;57.40;;;;;;4974315;28;20023;-79
2023/04/23 00:28:08;;;;;;;14.70;11.52;;;10.70;57.70;;;;;;4974303;28;20726;-79
2023/04/23 00:30:34;;;;;;;20.02;11.38;;;10.70;57.70;;;;;;4975631;28;20023;-80
2023/04/23 00:33:00;;;;;;;22.77;10.93;;;10.70;58.00;;;;;;4975965;28;20070;-79
2023/04/23 00:35:26;;;;;;;17.20;9.93;;;10.60;57.90;;;;;;4974521;28;20039;-79
2023/04/23 00:37:52;;;;;;;20.70;11.30;;;10.60;57.60;;;;;;4957249;28;20464;-80
2023/04/23 00:40:19;;;;;;;25.98;11.40;;;10.60;57.80;;;;;;4974105;28;20471;-80
2023/04/23 00:42:46;;;;;;;21.63;10.95;;;10.50;57.80;;;;;;4959956;28;20061;-79
2023/04/23 00:45:11;;;;;;;21.33;10.70;;;10.60;57.80;;;;;;4957426;28;20117;-80
2023/04/23 00:47:39;;;;;;;16.33;10.18;;;10.60;57.80;;;;;;4979337;28;20050;-80
2023/04/23 00:50:06;;;;;;;18.08;10.00;;;10.60;58.40;;;;;;4980247;28;20077;-79
2023/04/23 00:52:33;;;;;;;19.65;11.05;;;10.50;58.30;;;;;;4974355;28;20031;-79
2023/04/23 00:54:59;;;;;;;24.58;10.85;;;10.50;58.70;;;;;;4974206;28;20108;-80
2023/04/23 00:57:25;;;;;;;21.40;10.90;;;10.50;59.00;;;;;;4973832;28;20138;-80
2023/04/23 00:59:53;;;;;;;19.67;10.95;;;10.50;58.70;;;;;;4973618;28;20384;-79
2023/04/23 01:02:20;;;;;;;25.45;11.07;;;10.50;58.60;;;;;;4973860;28;20384;-77
2023/04/23 01:04:50;;;;;;;20.92;10.25;;;10.50;58.40;;;;;;4972832;28;20057;-80
2023/04/23 01:07:16;;;;;;;19.55;10.32;;;10.50;58.30;;;;;;4973908;28;20054;-78
2023/04/23 01:09:42;;;;;;;21.27;10.85;;;10.50;58.80;;;;;;4974111;28;20037;-79
2023/04/23 01:12:09;;;;;;;26.33;9.52;;;10.50;58.80;;;;;;4974465;28;20037;-78
2023/04/23 01:14:36;;;;;;;21.08;9.63;;;10.40;58.90;;;;;;4972043;28;20027;-78
2023/04/23 01:17:03;;;;;;;20.65;11.25;;;10.40;58.90;;;;;;4973542;28;20110;-79
2023/04/23 01:19:28;;;;;;;22.92;11.15;;;10.40;58.80;;;;;;4974008;28;20023;-78
2023/04/23 01:21:55;;;;;;;24.35;10.52;;;10.40;58.80;;;;;;4957896;28;20066;-79
2023/04/23 01:24:21;;;;;;;23.90;11.07;;;10.40;59.10;;;;;;4973501;28;20058;-78
2023/04/23 01:26:47;;;;;;;22.42;10.98;;;10.30;59.10;;;;;;4955423;28;20460;-80
2023/04/23 01:29:13;;;;;;;25.63;11.68;;;10.30;59.10;;;;;;4956346;28;20037;-78
2023/04/23 01:31:40;;;;;;;24.45;11.77;;;10.30;59.10;;;;;;4973308;28;20038;-79
2023/04/23 01:34:06;;;;;;;28.33;12.63;;;10.30;59.50;;;;;;4978019;28;20459;-78
2023/04/23 01:36:34;;;;;;;17.85;10.52;;;10.30;59.40;;;;;;4982081;28;20023;-77
2023/04/23 01:39:00;;;;;;;22.25;10.88;;;10.20;59.30;;;;;;4955698;28;20177;-78
2023/04/23 01:41:26;;;;;;;22.25;11.90;;;10.20;59.20;;;;;;4977330;28;20101;-77
2023/04/23 01:43:52;;;;;;;16.90;11.13;;;10.20;59.40;;;;;;4976018;28;20050;-79
2023/04/23 01:46:20;;;;;;;23.17;11.90;;;10.20;59.60;;;;;;4973628;28;20026;-79
2023/04/23 01:48:46;;;;;;;22.23;11.00;;;10.10;59.60;;;;;;4973978;28;20023;-79
2023/04/23 01:51:12;;;;;;;21.67;11.30;;;10.20;59.80;;;;;;4973655;28;20492;-78
2023/04/23 01:53:38;;;;;;;18.27;11.00;;;10.20;59.90;;;;;;4973070;28;20037;-78
2023/04/23 01:56:05;;;;;;;24.30;11.05;;;10.10;59.90;;;;;;4973125;28;20042;-79
2023/04/23 01:58:31;;;;;;;29.95;11.65;;;10.10;59.80;;;;;;4972518;28;20035;-78
2023/04/23 02:00:57;;;;;;;19.02;11.80;;;10.10;59.60;;;;;;4973484;28;20034;-78
2023/04/23 02:03:24;;;;;;;18.75;10.85;;;10.10;59.90;;;;;;4973174;28;20042;-77
2023/04/23 02:05:52;;;;;;;23.13;10.93;;;10.00;60.00;;;;;;4972929;28;20090;-78
2023/04/23 02:08:18;;;;;;;17.40;10.80;;;10.10;60.00;;;;;;4973131;28;20023;-78
2023/04/23 02:10:44;;;;;;;18.67;10.55;;;10.00;60.00;;;;;;4973013;28;20081;-79
2023/04/23 02:13:10;;;;;;;19.60;10.95;;;10.10;60.00;;;;;;4971830;28;20031;-78
2023/04/23 02:15:37;;;;;;;27.40;11.88;;;10.00;60.50;;;;;;4972944;28;20218;-79
2023/04/23 02:18:03;;;;;;;19.42;10.07;;;10.10;59.90;;;;;;4976451;28;20102;-79
2023/04/23 02:20:29;;;;;;;21.88;11.75;;;10.10;59.80;;;;;;4976583;28;20116;-78
2023/04/23 02:22:55;;;;;;;18.52;11.15;;;10.10;59.90;;;;;;4976162;28;20203;-78
2023/04/23 02:25:21;;;;;;;19.13;10.93;;;10.10;59.70;;;;;;4976350;28;20054;-80
2023/04/23 02:27:47;;;;;;;22.35;11.10;;;10.20;60.00;;;;;;4976094;28;20046;-77
2023/04/23 02:30:14;;;;;;;22.42;12.73;;;10.20;59.90;;;;;;4967571;28;20082;-77
2023/04/23 02:32:41;;;;;;;26.30;12.57;;;10.20;60.00;;;;;;4972309;28;20023;-80
2023/04/23 02:35:09;;;;;;;20.00;12.13;;;10.30;59.70;;;;;;4977274;28;20027;-78
2023/04/23 02:37:35;;;;;;;;;;;10.40;59.40;;;;;;4978168;28;20038;-77
2023/04/23 02:40:04;;;;;;;23.37;10.77;;;10.50;59.00;;;;;;4977992;28;19910;-80
2023/04/23 02:42:30;;;;;;;19.35;11.45;;;10.60;58.60;;;;;;4981344;28;20271;-78
2023/04/23 02:44:56;;;;;;;20.85;11.05;;;10.70;58.70;;;;;;4977196;28;20500;-77
2023/04/23 02:47:22;;;;;;;23.35;12.85;;;10.90;58.20;;;;;;4975453;28;20042;-78
2023/04/23 02:49:48;;;;;;;22.77;11.82;;;11.10;58.00;;;;;;4975763;28;20023;-78
2023/04/23 02:52:13;;;;;;;23.25;10.90;;;11.20;57.90;;;;;;4976464;28;20489;-78
2023/04/23 02:54:39;;;;;;;22.92;11.38;;;11.30;57.40;;;;;;4959895;28;20461;-79
2023/04/23 02:57:05;;;;;;;23.20;11.10;;;11.50;56.90;;;;;;4975741;28;20563;-79
2023/04/23 02:59:31;;;;;;;24.55;12.88;;;11.70;56.80;;;;;;4976902;28;20380;-79
2023/04/23 03:01:57;;;;;;;18.83;10.25;;;11.90;56.30;;;;;;4975448;28;20027;-80
2023/04/23 03:04:23;;;;;;;20.10;12.07;;;12.00;55.80;;;;;;4975847;28;20105;-78
2023/04/23 03:06:49;;;;;;;17.25;11.98;;;12.20;55.30;;;;;;4977318;28;20027;-79
2023/04/23 03:09:15;;;;;;;21.48;12.60;;;12.40;54.90;;;;;;4959975;28;20472;-79
2023/04/23 03:11:42;;;;;;;18.23;11.95;;;12.60;54.50;;;;;;4976352;28;20078;-80
2023/04/23 03:14:08;;;;;;;18.55;11.63;;;12.70;54.00;;;;;;4974266;28;20117;-79
2023/04/23 03:16:34;;;;;;;21.95;11.85;;;12.90;53.80;;;;;;4975668;28;20114;-79
2023/04/23 03:19:00;;;;;;;20.60;12.25;;;13.00;53.50;;;;;;4974884;28;20026;-80
2023/04/23 03:21:26;;;;;;;16.58;11.40;;;13.10;53.60;;;;;;4975521;28;20023;-79
2023/04/23 03:23:52;;;;;;;16.00;11.68;;;13.30;53.00;;;;;;4977122;28;20030;-78
2023/04/23 03:26:18;;;;;;;18.95;10.45;;;13.50;52.80;;;;;;4987114;28;20019;-79
2023/04/23 03:28:43;;;;;;;21.42;12.52;;;13.50;52.40;;;;;;4966829;28;20107;-78
2023/04/23 03:31:09;;;;;;;17.00;11.40;;;13.50;52.20;;;;;;4975002;28;20468;-79
2023/04/23 03:33:35;;;;;;;19.77;11.32;;;13.50;52.30;;;;;;4975122;28;20030;-79
2023/04/23 03:36:01;;;;;;;21.45;11.45;;;13.50;52.40;;;;;;4978025;28;20076;-79
2023/04/23 03:38:27;;;;;;;19.48;10.82;;;13.40;52.40;;;;;;4967461;28;20027;-79
2023/04/23 03:40:53;;;;;;;16.20;10.95;;;13.40;52.40;;;;;;4974920;28;20472;-79
2023/04/23 03:43:18;;;;;;;18.88;10.27;;;13.40;52.40;;;;;;4982567;28;20065;-79
2023/04/23 03:45:44;;;;;;;17.50;9.73;;;13.40;52.10;;;;;;4963517;28;20033;-79
2023/04/23 03:48:10;;;;;;;19.48;9.45;;;13.40;51.90;;;;;;4974732;28;20035;-78
2023/04/23 03:50:39;;;;;;;21.48;10.07;;;13.50;51.90;;;;;;4974561;28;20041;-79
2023/04/23 03:53:06;;;;;;;15.98;10.80;;;13.50;51.90;;;;;;4974762;28;20027;-78
2023/04/23 03:55:32;;;;;;;;;;;13.40;51.90;;;;;;4958258;28;20025;-79
2023/04/23 03:58:01;;;;;;;19.42;10.20;;;13.40;52.10;;;;;;4974978;28;19972;-79
2023/04/23 04:00:27;;;;;;;16.23;9.68;;;13.30;52.10;;;;;;4974898;28;20420;-79
2023/04/23 04:02:53;;;;;;;16.55;10.15;;;13.40;52.30;;;;;;4974690;28;20035;-78
2023/04/23 04:05:19;;;;;;;17.90;10.23;;;13.40;52.40;;;;;;4975161;28;20094;-79
2023/04/23 04:07:48;;;;;;;17.52;10.02;;;13.50;52.40;;;;;;4975069;28;20034;-80
2023/04/23 04:10:14;;;;;;;19.95;10.50;;;13.60;52.20;;;;;;4974880;28;20030;-79
2023/04/23 04:12:41;;;;;;;19.20;8.95;;;13.80;52.00;;;;;;4975165;28;20030;-79
2023/04/23 04:15:07;;;;;;;14.93;8.90;;;13.90;51.90;;;;;;4974863;28;20030;-81
2023/04/23 04:17:33;;;;;;;15.95;8.45;;;14.20;51.50;;;;;;4980223;28;20010;-78
2023/04/23 04:19:59;;;;;;;15.27;7.85;;;14.40;51.00;;;;;;4983175;28;20031;-79
2023/04/23 04:22:25;;;;;;;16.77;7.63;;;14.60;50.40;;;;;;4974410;28;20022;-79
2023/04/23 04:24:51;;;;;;;13.13;8.38;;;14.80;50.80;;;;;;4983560;28;20406;-79
2023/04/23 04:27:17;;;;;;;11.52;8.60;;;15.00;49.60;;;;;;4979101;28;20093;-78
2023/04/23 04:29:43;;;;;;;17.48;9.05;;;15.20;49.10;;;;;;4975586;28;20022;-80
2023/04/23 04:32:10;;;;;;;16.98;8.45;;;15.40;48.80;;;;;;4975369;28;20069;-77
2023/04/23 04:34:37;;;;;;;17.05;9.48;;;15.50;48.70;;;;;;4964692;28;20117;-79
2023/04/23 04:37:03;;;;;;;12.60;8.47;;;15.50;48.70;;;;;;4979065;28;20416;-80
2023/04/23 04:39:29;;;;;;;18.13;9.20;;;15.50;48.70;;;;;;4990876;28;20090;-80
2023/04/23 04:41:56;;;;;;;15.90;8.70;;;15.60;48.60;;;;;;4976496;28;20444;-79
2023/04/23 04:44:22;;;;;;;16.80;8.55;;;15.70;48.40;;;;;;4974622;28;20035;-80
2023/04/23 04:46:48;;;;;;;16.25;9.73;;;15.70;48.30;;;;;;4956778;28;20023;-78
2023/04/23 04:49:14;;;;;;;19.02;9.80;;;15.60;48.40;;;;;;4974204;28;20027;-80
2023/04/23 04:51:40;;;;;;;19.90;8.90;;;15.60;48.40;;;;;;4973911;28;20022;-78
2023/04/23 04:54:06;;;;;;;20.38;9.15;;;15.60;48.50;;;;;;4975014;28;20037;-79
2023/04/23 04:56:33;;;;;;;22.65;8.95;;;15.70;48.30;;;;;;4958489;28;20384;-80
2023/04/23 04:59:00;;;;;;;15.23;8.40;;;15.70;48.40;;;;;;4973788;28;20050;-80
2023/04/23 05:01:28;;;;;;;15.80;8.30;;;15.70;48.80;;;;;;4974269;28;20053;-79
2023/04/23 05:03:55;;;;;;;13.45;8.32;;;15.80;47.90;;;;;;4987395;28;20299;-78
2023/04/23 05:06:21;;;;;;;18.10;8.70;;;15.80;47.80;;;;;;4973641;28;20031;-79
2023/04/23 05:08:47;;;;;;;13.05;8.50;;;15.70;48.00;;;;;;4973806;28;20085;-79
2023/04/23 05:11:14;;;;;;;15.32;9.20;;;15.80;48.00;;;;;;4974051;28;20027;-78
2023/04/23 05:13:40;;;;;;;;;;;15.90;47.90;;;;;;4974434;28;20026;-80
2023/04/23 05:16:07;;;;;;;18.67;8.02;;;16.00;47.90;;;;;;4975243;28;19982;-80
2023/04/23 05:18:32;;;;;;;18.70;8.13;;;16.10;47.60;;;;;;4974476;28;20030;-79
2023/04/23 05:20:59;;;;;;;16.23;7.82;;;16.10;47.40;;;;;;4973258;28;20034;-78
2023/04/23 05:23:25;;;;;;;15.90;8.70;;;16.30;47.50;;;;;;4973461;28;20119;-80
2023/04/23 05:25:52;;;;;;;15.55;7.50;;;16.30;47.10;;;;;;4952740;28;20479;-81
2023/04/23 05:28:18;;;;;;;13.60;7.70;;;16.40;47.10;;;;;;4983812;28;20476;-79
2023/04/23 05:30:43;;;;;;;13.50;7.85;;;16.60;47.00;;;;;;4976975;28;20046;-79
2023/04/23 05:33:11;;;;;;;16.88;7.63;;;16.60;46.80;;;;;;4973468;28;20129;-79
2023/04/23 05:35:37;;;;;;;13.50;7.55;;;16.60;46.10;;;;;;4973077;28;20385;-79
2023/04/23 05:38:05;;;;;;;16.25;7.00;;;16.50;45.50;;;;;;4973195;28;20065;-79
2023/04/23 05:40:31;;;;;;;16.50;6.65;;;16.40;45.40;;;;;;4973472;28;20023;-79
2023/04/23 05:43:00;;;;;;;10.48;6.53;;;16.50;45.50;;;;;;4973115;28;20029;-78
2023/04/23 05:45:27;;;;;;;11.98;6.72;;;16.60;45.50;;;;;;4973045;28;20496;-79
2023/04/23 05:47:52;;;;;;;11.32;7.22;;;16.80;45.40;;;;;;4955898;28;20018;-80
2023/04/23 05:50:19;;;;;;;13.20;7.15;;;17.10;45.00;;;;;;4974335;28;20030;-79
2023/04/23 05:52:45;;;;;;;13.52;7.07;;;17.50;44.60;;;;;;4977052;28;20381;-79
2023/04/23 05:55:11;;;;;;;11.95;7.63;;;18.20;44.20;;;;;;4976354;28;20027;-80
2023/04/23 05:57:37;;;;;;;16.58;8.23;;;19.00;43.10;;;;;;4955184;28;20506;-79
2023/04/23 06:00:05;;;;;;;12.35;7.90;;;19.80;42.10;;;;;;4981231;28;20060;-79
2023/04/23 06:02:32;;;;;;;12.63;8.00;;;20.40;41.10;;;;;;4974602;28;20030;-81
2023/04/23 06:04:58;;;;;;;10.18;7.57;;;;;;;;;;4976960;28;20121;-80
2023/04/23 06:07:24;;;;;;;14.05;7.72;;;23.10;37.80;;;;;;4970005;28;20559;-79
2023/04/23 06:09:50;;;;;;;13.13;6.72;;;23.70;36.70;;;;;;4957602;28;20055;-79
2023/04/23 06:12:17;;;;;;;10.18;6.47;;;23.50;36.10;;;;;;4971406;28;20074;-79
2023/04/23 06:14:43;;;;;;;10.03;6.50;;;23.40;35.80;;;;;;4958249;28;20027;-78
2023/04/23 06:17:08;;;;;;;14.13;7.53;;;23.00;35.90;;;;;;4961582;28;20327;-79
2023/04/23 06:19:34;;;;;;;14.82;7.72;;;22.50;36.30;;;;;;4968791;28;20023;-78
2023/04/23 06:22:04;;;;;;;16.33;7.82;;;22.50;36.80;;;;;;4974116;28;20034;-79
2023/04/23 06:24:30;;;;;;;13.32;7.72;;;22.60;36.90;;;;;;4975099;28;20031;-78
2023/04/23 06:26:56;;;;;;;13.80;6.45;;;22.50;37.30;;;;;;4976356;28;20428;-79
2023/04/23 06:29:22;;;;;;;13.68;7.18;;;22.30;36.70;;;;;;4969260;28;20027;-79
2023/04/23 06:31:48;;;;;;;12.55;5.45;;;22.30;37.00;;;;;;4976731;28;20718;-80
2023/04/23 06:34:14;;;;;;;12.63;5.75;;;22.10;36.80;;;;;;4975665;28;20027;-80
2023/04/23 06:36:42;;;;;;;13.02;6.45;;;22.10;36.90;;;;;;4968629;28;20543;-86
2023/04/23 06:39:08;;;;;;;10.43;4.95;;;22.60;36.90;;;;;;4969970;28;20023;-77
2023/04/23 06:41:34;;;;;;;7.95;4.15;;;23.10;35.70;;;;;;4967243;28;20107;-78
2023/04/23 06:43:59;;;;;;;9.82;5.00;;;22.90;35.10;;;;;;4955006;28;20503;-79
2023/04/23 06:46:25;;;;;;;9.88;4.80;;;22.80;35.60;;;;;;4952512;28;20029;-79
2023/04/23 06:48:51;;;;;;;8.50;4.78;;;22.70;35.40;;;;;;4968632;28;20401;-77
2023/04/23 06:51:17;;;;;;;7.93;4.40;;;22.60;35.40;;;;;;4959785;28;20105;-79
2023/04/23 06:53:43;;;;;;;6.18;4.13;;;22.40;35.20;;;;;;4959994;28;20023;-80
2023/04/23 06:56:09;;;;;;;10.00;4.28;;;22.10;35.40;;;;;;4988246;28;20023;-79
2023/04/23 06:58:35;;;;;;;9.45;5.25;;;22.10;35.70;;;;;;4979421;28;20019;-78
2023/04/23 07:01:04;;;;;;;9.32;6.03;;;22.10;35.80;;;;;;4977073;28;20476;-76
2023/04/23 07:03:30;;;;;;;7.88;6.60;;;22.00;35.60;;;;;;4964516;28;20035;-78
2023/04/23 07:05:56;;;;;;;11.17;7.73;;;21.60;36.50;;;;;;4961824;28;20126;-77
2023/04/23 07:08:22;;;;;;;11.25;7.35;;;21.40;36.40;;;;;;4967855;28;20029;-76
2023/04/23 07:10:49;;;;;;;17.58;11.93;;;21.10;36.70;;;;;;4967466;28;20019;-80
2023/04/23 07:13:15;;;;;;;10.35;7.90;;;20.90;37.50;;;;;;4968721;28;20019;-82
2023/04/23 07:15:41;;;;;;;13.45;9.23;;;20.90;37.40;;;;;;4965037;28;20019;-83
2023/04/23 07:18:08;;;;;;;19.30;8.70;;;20.60;37.50;;;;;;4962613;28;20437;-83
2023/04/23 07:20:34;;;;;;;11.77;9.37;;;20.30;38.40;;;;;;4964101;28;20077;-81
2023/04/23 07:23:02;;;;;;;13.40;9.90;;;20.30;38.20;;;;;;4966375;28;20110;-80
2023/04/23 07:25:29;;;;;;;13.65;11.30;;;20.40;38.40;;;;;;4951783;28;20353;-81
2023/04/23 07:27:55;;;;;;;16.35;12.18;;;20.70;38.40;;;;;;4975788;28;20015;-80
2023/04/23 07:30:22;;;;;;;15.90;12.13;;;21.20;37.90;;;;;;4976558;28;20023;-81
2023/04/23 07:32:48;;;;;;;17.70;12.95;;;21.60;37.50;;;;;;4967447;28;20023;-81
2023/04/23 07:35:14;;;;;;;21.73;12.18;;;22.10;37.10;;;;;;4980007;28;20023;-82
2023/04/23 07:37:41;;;;;;;15.20;12.85;;;22.80;36.40;;;;;;4966887;28;20015;-82
2023/04/23 07:40:07;;;;;;;23.75;12.13;;;23.20;36.10;;;;;;4969240;28;20047;-81
2023/04/23 07:42:33;;;;;;;17.58;11.13;;;23.40;35.70;;;;;;4966636;28;20018;-82
2023/04/23 07:44:59;;;;;;;17.98;12.25;;;23.60;34.80;;;;;;4960960;28;20042;-81
2023/04/23 07:47:25;;;;;;;21.25;10.52;;;23.80;35.20;;;;;;4968591;28;20022;-82
2023/04/23 07:49:51;;;;;;;22.50;10.45;;;23.90;34.90;;;;;;4993412;28;20061;-83
2023/04/23 07:52:17;;;;;;;16.90;10.10;;;24.40;34.40;;;;;;4973515;28;20027;-81
2023/04/23 07:54:45;;;;;;;17.95;10.30;;;24.50;34.00;;;;;;4977425;28;20026;-82
2023/04/23 07:57:11;;;;;;;;;;;24.60;34.10;;;;;;4983815;28;20150;-82
2023/04/23 07:59:39;;;;;;;15.83;10.00;;;25.10;34.50;;;;;;4984496;28;19968;-81
2023/04/23 08:02:05;;;;;;;20.20;13.07;;;26.10;33.50;;;;;;4976957;28;20031;-84
2023/04/23 08:04:31;;;;;;;8.55;5.47;;;27.20;32.50;;;;;;4979957;28;20411;-83
2023/04/23 08:06:57;;;;;;;11.45;4.78;;;29.50;30.20;;;;;;4979836;28;20030;-80
2023/04/23 08:09:23;;;;;;;7.30;4.10;;;31.30;28.80;;;;;;4971571;28;20023;-79
2023/04/23 08:11:49;;;;;;;3.95;2.10;;;32.70;27.50;;;;;;4974228;28;20034;-78
2023/04/23 08:14:16;;;;;;;3.63;2.30;;;;;;;;;;4973218;28;20228;-82
2023/04/23 08:16:41;;;;;;;4.45;3.45;;;34.20;25.50;;;;;;4982607;28;20030;-81
2023/04/23 08:19:07;;;;;;;6.60;4.27;;;34.60;25.80;;;;;;4980566;28;20034;-82
2023/04/23 08:21:33;;;;;;;5.90;4.10;;;34.50;26.10;;;;;;4986781;28;20015;-82
2023/04/23 08:24:01;;;;;;;6.68;3.42;;;34.10;25.70;;;;;;4980558;28;20098;-84
2023/04/23 08:26:27;;;;;;;4.97;3.50;;;34.20;25.90;;;;;;4970437;28;20023;-82
2023/04/23 08:28:53;;;;;;;5.40;2.75;;;35.00;25.80;;;;;;4972116;28;20023;-84
2023/04/23 08:31:19;;;;;;;6.70;3.08;;;35.10;25.00;;;;;;4967012;28;20054;-82
2023/04/23 08:33:45;;;;;;;7.13;4.22;;;35.10;25.10;;;;;;4971065;28;20065;-81
2023/04/23 08:36:11;;;;;;;6.72;4.13;;;;;;;;;;4971193;28;20031;-83
2023/04/23 08:38:37;;;;;;;10.57;4.93;;;35.80;24.70;;;;;;4976596;28;20023;-81
2023/04/23 08:41:05;;;;;;;5.55;3.50;;;35.80;25.10;;;;;;4971426;28;20531;-81
2023/04/23 08:43:37;;;;;;;4.63;2.53;;;34.20;24.80;;;;;;4977002;28;20030;-81
2023/04/23 08:46:03;;;;;;;4.32;2.80;;;31.70;25.20;;;;;;4972024;28;20030;-80
2023/04/23 08:48:30;;;;;;;3.53;2.70;;;29.80;26.20;;;;;;4976019;28;20383;-82
2023/04/23 08:51:02;;;;;;;6.40;2.80;;;29.60;26.80;;;;;;4979533;28;20041;-81
2023/04/23 08:53:28;;;;;;;6.90;2.92;;;31.20;26.70;;;;;;4976218;28;20069;-82
2023/04/23 08:55:55;;;;;;;5.30;2.57;;;32.50;25.80;;;;;;4974745;28;20046;-80
2023/04/23 08:58:22;;;;;;;9.13;2.55;;;32.10;25.70;;;;;;4945019;28;20027;-81
2023/04/23 09:00:49;;;;;;;5.57;2.83;;;32.20;26.00;;;;;;4969183;28;20093;-78
2023/04/23 09:03:19;;;;;;;;;;;32.90;26.00;;;;;;4970180;28;20413;-78
2023/04/23 09:05:46;;;;;;;9.50;2.60;;;33.80;26.20;;;;;;4969975;28;20368;-80
2023/04/23 09:08:12;;;;;;;6.65;3.10;;;34.30;25.00;;;;;;4971281;28;20435;-78
2023/04/23 09:10:41;;;;;;;9.37;5.03;;;33.70;24.80;;;;;;4971812;28;20115;-80
2023/04/23 09:13:07;;;;;;;7.80;3.38;;;31.50;25.50;;;;;;4969034;28;20069;-80
2023/04/23 09:15:42;;;;;;;11.35;6.05;;;;;;;;;;4968774;28;20027;-81
2023/04/23 09:18:08;;;;;;;4.40;2.53;;;;;;;;;;4969423;28;20015;-79
2023/04/23 09:20:34;;;;;;;12.55;6.20;;;;;;;;;;4967408;28;20054;-80
2023/04/23 09:23:05;;;;;;;10.25;2.83;;;31.40;26.40;;;;;;4965388;28;20031;-79
2023/04/23 09:25:32;;;;;;;7.72;3.00;;;32.50;26.00;;;;;;4970936;28;20102;-81
2023/04/23 09:28:00;;;;;;;8.75;2.33;;;33.80;25.60;;;;;;4971656;28;20073;-81
2023/04/23 09:30:26;;;;;;;3.00;1.70;;;34.90;24.90;;;;;;4970015;28;20033;-81
2023/04/23 09:32:52;;;;;;;9.70;7.82;;;35.60;24.50;;;;;;4978005;28;20385;-80
2023/04/23 09:35:19;;;;;;;2.97;2.05;;;35.40;24.70;;;;;;4970632;28;20027;-82
2023/04/23 09:37:51;;;;;;;8.85;6.10;;;35.10;24.30;;;;;;4969721;28;20054;-81
2023/04/23 09:40:22;;;;;;;3.53;2.05;;;34.80;24.50;;;;;;4967753;28;20510;-81
2023/04/23 09:42:53;;;;;;;4.05;2.38;;;35.10;24.40;;;;;;4971897;28;20030;-84
2023/04/23 09:45:19;;;;;;;7.75;5.75;;;35.20;24.30;;;;;;4962970;28;20039;-80
2023/04/23 09:47:48;;;;;;;;;;;34.50;24.50;;;;;;4954301;28;20090;-83
2023/04/23 09:50:14;;;;;;;5.40;2.20;;;34.30;25.00;;;;;;4978799;28;19910;-83
2023/04/23 09:52:40;;;;;;;9.77;2.40;;;34.10;24.60;;;;;;4981792;28;20034;-82
2023/04/23 09:55:06;;;;;;;3.47;1.88;;;34.70;24.90;;;;;;4979284;28;20117;-83
2023/04/23 09:57:41;;;;;;;9.02;2.92;;;35.20;24.50;;;;;;4985931;28;20076;-83
2023/04/23 10:00:18;;;;;;;3.53;2.13;;;36.20;24.70;;;;;;4980515;28;20045;-84
2023/04/23 10:02:48;;;;;;;8.35;2.08;;;36.40;24.20;;;;;;4969804;28;20026;-84
2023/04/23 10:05:19;;;;;;;9.35;2.42;;;36.90;24.10;;;;;;4973138;28;20535;-83
2023/04/23 10:07:47;;;;;;;11.02;2.97;;;37.00;24.00;;;;;;4965476;28;20027;-84
2023/04/23 10:10:17;;;;;;;2.45;1.90;;;36.40;24.10;;;;;;4970567;28;20038;-83
2023/04/23 10:12:44;;;;;;;4.25;2.15;;;36.50;24.50;;;;;;4975474;28;20034;-84
2023/04/23 10:15:12;;;;;;;5.03;2.50;;;36.70;24.10;;;;;;4969771;28;20023;-81
2023/04/23 10:17:39;;;;;;;9.02;4.00;;;36.60;23.90;;;;;;4979061;28;20034;-84
2023/04/23 10:20:07;;;;;;;10.98;5.72;;;35.30;24.10;;;;;;4973954;28;20031;-86
2023/04/23 10:22:34;;;;;;;9.88;4.90;;;33.30;24.70;;;;;;4963070;28;20182;-84
2023/04/23 10:25:09;;;;;;;5.07;2.55;;;31.60;25.20;;;;;;4963701;28;20413;-83
2023/04/23 10:27:38;;;;;;;5.13;2.40;;;;;;;;;;4980966;28;20473;-85
2023/04/23 10:30:09;;;;;;;4.57;2.75;;;;;;;;;;4978366;28;20054;-84
2023/04/23 10:32:36;;;;;;;5.75;2.63;;;;;;;;;;4967609;28;20018;-83
2023/04/23 10:35:02;;;;;;;5.88;2.65;;;;;;;;;;4969805;28;20023;-84
2023/04/23 10:37:29;;;;;;;5.07;2.45;;;29.80;26.00;;;;;;4973999;28;20019;-81
2023/04/23 10:40:00;;;;;;;3.92;2.25;;;24.80;29.10;;;;;;4970142;28;20026;-86
2023/04/23 10:42:26;;;;;;;4.10;2.60;;;23.70;29.70;;;;;;4968012;28;20059;-82
2023/04/23 10:44:58;;;;;;;3.93;2.10;;;;;;;;;;4972017;28;20033;-79
2023/04/23 10:47:24;;;;;;;3.85;2.60;;;;;;;;;;4974216;28;20089;-80
2023/04/23 10:49:51;;;;;;;9.13;2.90;;;;;;;;;;4976931;28;20031;-83
2023/04/23 10:52:17;;;;;;;9.02;3.17;;;23.30;30.40;;;;;;4982337;28;20015;-81
2023/04/23 10:54:48;;;;;;;6.28;2.63;;;22.00;31.90;;;;;;4985901;28;20476;-82
2023/04/23 10:57:28;;;;;;;6.65;2.90;;;21.70;32.20;;;;;;4965610;28;20117;-80
2023/04/23 10:59:57;;;;;;;3.50;2.50;;;21.50;32.50;;;;;;4969245;28;20026;-79
2023/04/23 11:02:24;;;;;;;5.68;2.50;;;21.50;32.80;;;;;;4976225;28;20106;-81
2023/04/23 11:04:57;;;;;;;8.75;3.50;;;21.40;32.50;;;;;;4978371;28;20538;-80
2023/04/23 11:07:31;;;;;;;6.18;2.88;;;21.10;32.90;;;;;;4958840;28;20090;-79
2023/04/23 11:10:13;;;;;;;5.70;2.33;;;21.00;33.30;;;;;;4970909;28;20051;-84
2023/04/23 11:12:40;;;;;;;6.60;2.83;;;20.80;33.20;;;;;;4951829;28;20035;-85
2023/04/23 11:15:14;;;;;;;6.87;3.13;;;20.60;33.50;;;;;;4972568;28;20535;-83
2023/04/23 11:17:43;;;;;;;4.18;2.22;;;20.50;33.70;;;;;;4970984;28;20030;-82
2023/04/23 11:20:12;;;;;;;7.28;4.07;;;20.50;33.80;;;;;;4966330;28;20054;-81
2023/04/23 11:22:41;;;;;;;13.30;7.22;;;20.50;33.70;;;;;;4973448;28;20045;-81
2023/04/23 11:25:13;;;;;;;16.27;8.85;;;20.40;33.90;;;;;;4971630;28;20031;-83
2023/04/23 11:27:42;;;;;;;16.00;8.10;;;20.40;34.40;;;;;;4975459;28;20027;-78
2023/04/23 11:30:13;;;;;;;13.15;5.10;;;20.40;34.50;;;;;;4976086;28;20025;-81
2023/04/23 11:32:47;;;;;;;4.63;3.15;;;20.50;34.30;;;;;;4996400;28;20027;-80
2023/04/23 11:35:15;;;;;;;7.78;2.20;;;20.60;34.10;;;;;;4963847;28;20033;-81
2023/04/23 11:37:42;;;;;;;5.18;2.88;;;20.50;34.10;;;;;;4979790;28;20031;-79
2023/04/23 11:40:14;;;;;;;5.57;2.22;;;20.40;34.10;;;;;;4977690;28;20033;-80
2023/04/23 11:42:45;;;;;;;3.63;2.35;;;20.40;34.40;;;;;;4977431;28;20034;-79
2023/04/23 11:45:20;;;;;;;6.20;2.45;;;20.30;34.20;;;;;;4976581;28;20038;-80
2023/04/23 11:47:55;;;;;;;5.95;2.88;;;20.20;34.40;;;;;;4976539;28;20074;-79
2023/04/23 11:50:32;;;;;;;5.65;2.63;;;20.20;34.60;;;;;;4978287;28;20034;-80
2023/04/23 11:53:10;;;;;;;5.55;2.38;;;20.20;34.70;;;;;;4993178;28;20522;-77
2023/04/23 11:55:37;;;;;;;7.97;4.20;;;20.00;35.10;;;;;;4968663;28;20105;-81
2023/04/23 11:58:02;;;;;;;5.28;3.20;;;20.00;35.40;;;;;;4967359;28;20058;-78
2023/04/23 12:00:28;;;;;;;5.85;3.20;;;20.00;35.20;;;;;;4976319;28;20027;-80
2023/04/23 12:02:59;;;;;;;6.35;2.42;;;20.00;35.20;;;;;;4978321;28;20368;-80
2023/04/23 12:05:30;;;;;;;4.38;2.38;;;20.00;35.10;;;;;;4974323;28;20043;-78
2023/04/23 12:08:13;;;;;;;4.60;2.10;;;19.90;35.10;;;;;;4980322;28;20015;-80
2023/04/23 12:10:46;;;;;;;3.95;2.30;;;19.80;35.30;;;;;;4963841;28;20027;-77
2023/04/23 12:13:23;;;;;;;4.18;3.15;;;19.90;35.60;;;;;;4959233;28;20522;-78
2023/04/23 12:16:02;;;;;;;9.10;3.22;;;19.90;35.50;;;;;;4958611;28;20054;-78
2023/04/23 12:18:38;;;;;;;8.38;4.07;;;20.00;35.60;;;;;;4979456;28;20051;-80
2023/04/23 12:21:13;;;;;;;3.70;2.70;;;20.00;35.80;;;;;;4976035;28;20202;-79
2023/04/23 12:23:40;;;;;;;7.90;4.00;;;20.20;35.30;;;;;;4975590;28;20126;-78
2023/04/23 12:26:12;;;;;;;8.05;4.20;;;20.30;35.60;;;;;;4977010;28;20063;-79
2023/04/23 12:28:57;;;;;;;5.80;4.05;;;20.20;35.40;;;;;;4967463;28;20043;-82
2023/04/23 12:31:28;;;;;;;9.32;3.15;;;20.20;35.30;;;;;;4960313;28;20413;-81
2023/04/23 12:34:08;;;;;;;14.10;6.93;;;20.10;35.50;;;;;;4943260;28;20027;-80
2023/04/23 12:36:36;;;;;;;10.55;3.67;;;20.10;35.90;;;;;;4958513;28;20039;-80
2023/04/23 12:39:30;;;;;;;7.10;3.90;;;20.00;35.70;;;;;;4963320;28;20121;-81
2023/04/23 12:42:05;;;;;;;7.45;3.90;;;20.10;35.40;;;;;;4968111;28;20039;-82
2023/04/23 12:44:38;;;;;;;5.72;4.22;;;20.10;35.70;;;;;;4958580;28;20039;-82